Pelican — WDB8062 — position and weather

sailwx.info

Track history (hours):
 
Tides and Currents Weather Stations Pressure Air Temp Water Temp Dewpoint Dewpoint Depression Visibility Wind Speed Wind Dir Waves Ship Positions

Pelican

Owner: Higman Barge Lines, Inc., Orange, TX. More information available from US FCC via Universal Licensing System.

Last reported at 2017-Nov-13 02:00 UTC. Time now 2017-Nov-22 14:48 UTC.
Position N 29°23' W 094°46'.
Warning: this ship's position is 9 days out of date.

Length 23 m; draft 3.2 m.

Type: Towing. MMSI: 366952310.

Date/timePositionNaut miles runAvg speedWind from/ knotsBaromVisibWave heightAir tempDewpointWater temp
2017-Nov-13 02:00N 29°23' W 094°46'  
2017-Nov-07 07:55N 30°03' W 093°44'3 6.5
2017-Nov-07 07:30N 30°04' W 093°41'3 4.8
2017-Nov-07 06:59N 30°04' W 093°38'3 6.4
2017-Nov-07 06:30N 30°04' W 093°34'3 6.4
2017-Nov-07 06:00N 30°04' W 093°30'3 6.4
2017-Nov-07 05:30N 30°04' W 093°27'3 6.1
2017-Nov-07 05:00N 30°04' W 093°23'2 4.9
2017-Nov-07 04:30N 30°04' W 093°21'2 4.8
2017-Nov-07 04:00N 30°07' W 093°20'3 5.8
2017-Nov-07 03:30N 30°10' W 093°19'3 6.1
2017-Nov-07 03:00N 30°12' W 093°17'2 4.9
2017-Nov-07 02:30N 30°14' W 093°15'0 0.1
2017-Nov-07 02:00N 30°14' W 093°15'0 0.0
2017-Nov-07 01:30N 30°14' W 093°15'0 0.0
2017-Nov-07 01:00N 30°14' W 093°15'0 0.0
2017-Nov-07 00:30N 30°14' W 093°15'0 0.0
2017-Nov-07 00:00N 30°14' W 093°15'0 0.0
2017-Nov-06 23:30N 30°14' W 093°15'0 0.0
2017-Nov-06 23:00N 30°14' W 093°15'0 0.0
2017-Nov-06 22:30N 30°14' W 093°15'0 0.0
2017-Nov-06 22:00N 30°14' W 093°15'0 0.0
2017-Nov-06 21:30N 30°14' W 093°15'0 0.0
2017-Nov-06 21:00N 30°14' W 093°15'0 0.0
2017-Nov-06 20:30N 30°14' W 093°15'0 0.0
2017-Nov-06 02:30N 30°14' W 093°15'0 0.0
2017-Nov-06 02:00N 30°14' W 093°15'0 0.0
2017-Nov-06 01:30N 30°14' W 093°15'0 0.0
2017-Nov-06 01:00N 30°14' W 093°15'0 0.0
2017-Nov-06 00:30N 30°14' W 093°15'0 0.0
2017-Nov-06 00:00N 30°14' W 093°15'0 0.0
2017-Nov-05 23:30N 30°14' W 093°15'0 0.0
2017-Nov-05 23:00N 30°14' W 093°15'0 0.0
2017-Nov-05 22:30N 30°14' W 093°15'0 0.0
2017-Nov-05 22:00N 30°14' W 093°15'0 0.0
2017-Nov-05 21:30N 30°14' W 093°15'0 0.0
2017-Nov-05 21:00N 30°14' W 093°15'0 0.0
2017-Nov-05 20:30N 30°14' W 093°15'0 0.0
2017-Nov-05 20:00N 30°14' W 093°15'0 0.0
2017-Nov-05 19:30N 30°14' W 093°15'0 0.0
2017-Nov-05 19:00N 30°14' W 093°15'0 0.0
2017-Nov-05 18:30N 30°14' W 093°15'0 0.0
2017-Nov-05 18:00N 30°14' W 093°15'0 0.0
2017-Nov-05 17:30N 30°14' W 093°15'0 0.0
2017-Nov-05 17:00N 30°14' W 093°15'0 0.0
2017-Nov-05 16:30N 30°14' W 093°15'0 0.0
2017-Nov-05 16:00N 30°14' W 093°15'0 0.0
2017-Nov-05 15:30N 30°14' W 093°15'0 0.0
2017-Nov-05 15:00N 30°14' W 093°15'0 0.0
2017-Nov-05 14:30N 30°14' W 093°15'0 0.0
2017-Nov-05 14:00N 30°14' W 093°15'0 0.0
2017-Nov-05 13:30N 30°14' W 093°15'0 0.0
2017-Nov-05 13:00N 30°14' W 093°15'0 0.0
2017-Nov-05 12:30N 30°14' W 093°15'0 0.0
2017-Nov-05 12:00N 30°14' W 093°15'0 0.0
2017-Nov-05 11:30N 30°14' W 093°15'0 0.0
2017-Nov-05 11:00N 30°14' W 093°15'0 0.0
2017-Nov-05 10:30N 30°14' W 093°15'0 0.0
2017-Nov-05 10:00N 30°14' W 093°15'0 0.0
2017-Nov-05 09:30N 30°14' W 093°15'0 0.0
2017-Nov-05 09:00N 30°14' W 093°15'0 0.0
2017-Nov-05 08:30N 30°14' W 093°15'0 0.0
2017-Nov-05 08:00N 30°14' W 093°15'0 0.0
2017-Nov-05 07:30N 30°14' W 093°15'0 0.0
2017-Nov-05 07:00N 30°14' W 093°15'0 0.0
2017-Nov-05 06:30N 30°14' W 093°15'0 0.0
2017-Nov-05 06:00N 30°14' W 093°15'0 0.0
2017-Nov-05 05:30N 30°14' W 093°15'0 0.0
2017-Nov-05 05:00N 30°14' W 093°15'0 0.2
2017-Nov-05 04:30N 30°14' W 093°15'1 1.5
2017-Nov-05 04:00N 30°13' W 093°16'0 0.5
2017-Nov-05 03:30N 30°13' W 093°16'2 4.6
2017-Nov-05 03:00N 30°12' W 093°18'2 4.8
2017-Nov-05 02:30N 30°10' W 093°19'3 5.9
2017-Nov-05 02:00N 30°07' W 093°20'1 3.0
2017-Nov-05 01:31N 30°06' W 093°18'1 2.4
2017-Nov-05 01:00N 30°05' W 093°17'1 2.7
2017-Nov-05 00:30N 30°04' W 093°16'0 0.1
2017-Nov-05 00:00N 30°04' W 093°16'0 0.3
2017-Nov-04 23:30N 30°04' W 093°16'1 2.9
2017-Nov-04 23:00N 30°03' W 093°16'2 4.9
2017-Nov-04 22:30N 30°01' W 093°14'2 4.6
2017-Nov-04 22:00N 29°59' W 093°12'2 4.8
2017-Nov-04 21:30N 29°57' W 093°11'3 5.0
2017-Nov-04 21:00N 29°56' W 093°08'36 1.9
2017-Nov-04 02:35N 29°54' W 092°27'4 4.3
2017-Nov-04 01:37N 29°52' W 092°22'2 4.3
2017-Nov-04 01:13N 29°51' W 092°21'1 4.7
2017-Nov-04 01:00N 29°51' W 092°20'2 4.5
2017-Nov-04 00:30N 29°50' W 092°18'2 4.7
2017-Nov-04 00:00N 29°48' W 092°16'3 5.3
2017-Nov-03 23:30N 29°47' W 092°13'1 1.6
2017-Nov-03 23:00N 29°47' W 092°12'1 2.0
2017-Nov-03 22:30N 29°47' W 092°11'2 4.4
2017-Nov-03 22:00N 29°47' W 092°08'2 4.7
2017-Nov-03 21:30N 29°48' W 092°06'3 5.0
2017-Nov-03 21:00N 29°49' W 092°03'3 5.3
2017-Nov-03 20:30N 29°50' W 092°00'  
Track history (hours):
 
Tides and Currents Weather Stations Pressure Air Temp Water Temp Dewpoint Dewpoint Depression Visibility Wind Speed Wind Dir Waves Ship Positions

Pelican

Owner: Higman Barge Lines, Inc., Orange, TX. More information available from US FCC via Universal Licensing System.

Last reported at 2017-Nov-13 02:00 UTC. Time now 2017-Nov-22 14:48 UTC.
Position N 29°23' W 094°46'.
Warning: this ship's position is 9 days out of date.

Length 23 m; draft 3.2 m.

Type: Towing. MMSI: 366952310.

Date/timePositionNaut miles runAvg speedWind from/ knotsBaromVisibWave heightAir tempDewpointWater temp
2017-Nov-13 02:00N 29°23' W 094°46'  
2017-Nov-07 07:55N 30°03' W 093°44'3 6.5
2017-Nov-07 07:30N 30°04' W 093°41'3 4.8
2017-Nov-07 06:59N 30°04' W 093°38'3 6.4
2017-Nov-07 06:30N 30°04' W 093°34'3 6.4
2017-Nov-07 06:00N 30°04' W 093°30'3 6.4
2017-Nov-07 05:30N 30°04' W 093°27'3 6.1
2017-Nov-07 05:00N 30°04' W 093°23'2 4.9
2017-Nov-07 04:30N 30°04' W 093°21'2 4.8
2017-Nov-07 04:00N 30°07' W 093°20'3 5.8
2017-Nov-07 03:30N 30°10' W 093°19'3 6.1
2017-Nov-07 03:00N 30°12' W 093°17'2 4.9
2017-Nov-07 02:30N 30°14' W 093°15'0 0.1
2017-Nov-07 02:00N 30°14' W 093°15'0 0.0
2017-Nov-07 01:30N 30°14' W 093°15'0 0.0
2017-Nov-07 01:00N 30°14' W 093°15'0 0.0
2017-Nov-07 00:30N 30°14' W 093°15'0 0.0
2017-Nov-07 00:00N 30°14' W 093°15'0 0.0
2017-Nov-06 23:30N 30°14' W 093°15'0 0.0
2017-Nov-06 23:00N 30°14' W 093°15'0 0.0
2017-Nov-06 22:30N 30°14' W 093°15'0 0.0
2017-Nov-06 22:00N 30°14' W 093°15'0 0.0
2017-Nov-06 21:30N 30°14' W 093°15'0 0.0
2017-Nov-06 21:00N 30°14' W 093°15'0 0.0
2017-Nov-06 20:30N 30°14' W 093°15'0 0.0
2017-Nov-06 02:30N 30°14' W 093°15'0 0.0
2017-Nov-06 02:00N 30°14' W 093°15'0 0.0
2017-Nov-06 01:30N 30°14' W 093°15'0 0.0
2017-Nov-06 01:00N 30°14' W 093°15'0 0.0
2017-Nov-06 00:30N 30°14' W 093°15'0 0.0
2017-Nov-06 00:00N 30°14' W 093°15'0 0.0
2017-Nov-05 23:30N 30°14' W 093°15'0 0.0
2017-Nov-05 23:00N 30°14' W 093°15'0 0.0
2017-Nov-05 22:30N 30°14' W 093°15'0 0.0
2017-Nov-05 22:00N 30°14' W 093°15'0 0.0
2017-Nov-05 21:30N 30°14' W 093°15'0 0.0
2017-Nov-05 21:00N 30°14' W 093°15'0 0.0
2017-Nov-05 20:30N 30°14' W 093°15'0 0.0
2017-Nov-05 20:00N 30°14' W 093°15'0 0.0
2017-Nov-05 19:30N 30°14' W 093°15'0 0.0
2017-Nov-05 19:00N 30°14' W 093°15'0 0.0
2017-Nov-05 18:30N 30°14' W 093°15'0 0.0
2017-Nov-05 18:00N 30°14' W 093°15'0 0.0
2017-Nov-05 17:30N 30°14' W 093°15'0 0.0
2017-Nov-05 17:00N 30°14' W 093°15'0 0.0
2017-Nov-05 16:30N 30°14' W 093°15'0 0.0
2017-Nov-05 16:00N 30°14' W 093°15'0 0.0
2017-Nov-05 15:30N 30°14' W 093°15'0 0.0
2017-Nov-05 15:00N 30°14' W 093°15'0 0.0
2017-Nov-05 14:30N 30°14' W 093°15'0 0.0
2017-Nov-05 14:00N 30°14' W 093°15'0 0.0
2017-Nov-05 13:30N 30°14' W 093°15'0 0.0
2017-Nov-05 13:00N 30°14' W 093°15'0 0.0
2017-Nov-05 12:30N 30°14' W 093°15'0 0.0
2017-Nov-05 12:00N 30°14' W 093°15'0 0.0
2017-Nov-05 11:30N 30°14' W 093°15'0 0.0
2017-Nov-05 11:00N 30°14' W 093°15'0 0.0
2017-Nov-05 10:30N 30°14' W 093°15'0 0.0
2017-Nov-05 10:00N 30°14' W 093°15'0 0.0
2017-Nov-05 09:30N 30°14' W 093°15'0 0.0
2017-Nov-05 09:00N 30°14' W 093°15'0 0.0
2017-Nov-05 08:30N 30°14' W 093°15'0 0.0
2017-Nov-05 08:00N 30°14' W 093°15'0 0.0
2017-Nov-05 07:30N 30°14' W 093°15'0 0.0
2017-Nov-05 07:00N 30°14' W 093°15'0 0.0
2017-Nov-05 06:30N 30°14' W 093°15'0 0.0
2017-Nov-05 06:00N 30°14' W 093°15'0 0.0
2017-Nov-05 05:30N 30°14' W 093°15'0 0.0
2017-Nov-05 05:00N 30°14' W 093°15'0 0.2
2017-Nov-05 04:30N 30°14' W 093°15'1 1.5
2017-Nov-05 04:00N 30°13' W 093°16'0 0.5
2017-Nov-05 03:30N 30°13' W 093°16'2 4.6
2017-Nov-05 03:00N 30°12' W 093°18'2 4.8
2017-Nov-05 02:30N 30°10' W 093°19'3 5.9
2017-Nov-05 02:00N 30°07' W 093°20'1 3.0
2017-Nov-05 01:31N 30°06' W 093°18'1 2.4
2017-Nov-05 01:00N 30°05' W 093°17'1 2.7
2017-Nov-05 00:30N 30°04' W 093°16'0 0.1
2017-Nov-05 00:00N 30°04' W 093°16'0 0.3
2017-Nov-04 23:30N 30°04' W 093°16'1 2.9
2017-Nov-04 23:00N 30°03' W 093°16'2 4.9
2017-Nov-04 22:30N 30°01' W 093°14'2 4.6
2017-Nov-04 22:00N 29°59' W 093°12'2 4.8
2017-Nov-04 21:30N 29°57' W 093°11'3 5.0
2017-Nov-04 21:00N 29°56' W 093°08'36 1.9
2017-Nov-04 02:35N 29°54' W 092°27'4 4.3
2017-Nov-04 01:37N 29°52' W 092°22'2 4.3
2017-Nov-04 01:13N 29°51' W 092°21'1 4.7
2017-Nov-04 01:00N 29°51' W 092°20'2 4.5
2017-Nov-04 00:30N 29°50' W 092°18'2 4.7
2017-Nov-04 00:00N 29°48' W 092°16'3 5.3
2017-Nov-03 23:30N 29°47' W 092°13'1 1.6
2017-Nov-03 23:00N 29°47' W 092°12'1 2.0
2017-Nov-03 22:30N 29°47' W 092°11'2 4.4
2017-Nov-03 22:00N 29°47' W 092°08'2 4.7
2017-Nov-03 21:30N 29°48' W 092°06'3 5.0
2017-Nov-03 21:00N 29°49' W 092°03'3 5.3
2017-Nov-03 20:30N 29°50' W 092°00'  

Dump ship's entire track history